sensor_id;sensor_type;location;lat;lon;timestamp;P1;durP1;ratioP1;P2;durP2;ratioP2
23058;SDS011;30585;51.502;7.218;2024-02-15T00:01:20;5.03;;;2.50;;
23058;SDS011;30585;51.502;7.218;2024-02-15T00:03:49;4.68;;;3.00;;
23058;SDS011;30585;51.502;7.218;2024-02-15T00:06:17;4.82;;;2.90;;
23058;SDS011;30585;51.502;7.218;2024-02-15T00:08:44;9.07;;;2.53;;
23058;SDS011;30585;51.502;7.218;2024-02-15T00:11:12;4.65;;;2.78;;
23058;SDS011;30585;51.502;7.218;2024-02-15T00:13:40;9.60;;;2.92;;
23058;SDS011;30585;51.502;7.218;2024-02-15T00:16:12;5.97;;;2.30;;
23058;SDS011;30585;51.502;7.218;2024-02-15T00:18:41;4.97;;;2.08;;
23058;SDS011;30585;51.502;7.218;2024-02-15T00:21:10;4.77;;;2.20;;
23058;SDS011;30585;51.502;7.218;2024-02-15T00:23:40;4.72;;;2.72;;
23058;SDS011;30585;51.502;7.218;2024-02-15T00:26:09;3.42;;;2.92;;
23058;SDS011;30585;51.502;7.218;2024-02-15T00:28:38;4.87;;;2.53;;
23058;SDS011;30585;51.502;7.218;2024-02-15T00:31:08;3.88;;;2.90;;
23058;SDS011;30585;51.502;7.218;2024-02-15T00:33:36;6.60;;;2.90;;
23058;SDS011;30585;51.502;7.218;2024-02-15T00:36:05;3.92;;;2.35;;
23058;SDS011;30585;51.502;7.218;2024-02-15T00:38:34;6.27;;;2.83;;
23058;SDS011;30585;51.502;7.218;2024-02-15T00:41:02;3.38;;;2.63;;
23058;SDS011;30585;51.502;7.218;2024-02-15T00:43:30;5.55;;;3.42;;
23058;SDS011;30585;51.502;7.218;2024-02-15T00:46:02;3.53;;;2.50;;
23058;SDS011;30585;51.502;7.218;2024-02-15T00:48:33;5.00;;;3.20;;
23058;SDS011;30585;51.502;7.218;2024-02-15T00:51:00;3.65;;;2.72;;
23058;SDS011;30585;51.502;7.218;2024-02-15T00:53:28;7.40;;;3.27;;
23058;SDS011;30585;51.502;7.218;2024-02-15T00:55:57;5.60;;;2.77;;
23058;SDS011;30585;51.502;7.218;2024-02-15T00:58:26;6.10;;;3.60;;
23058;SDS011;30585;51.502;7.218;2024-02-15T01:00:54;3.80;;;3.30;;
23058;SDS011;30585;51.502;7.218;2024-02-15T01:03:21;5.15;;;3.42;;
23058;SDS011;30585;51.502;7.218;2024-02-15T01:05:50;4.77;;;3.17;;
23058;SDS011;30585;51.502;7.218;2024-02-15T01:08:18;4.57;;;2.97;;
23058;SDS011;30585;51.502;7.218;2024-02-15T01:10:46;7.75;;;3.65;;
23058;SDS011;30585;51.502;7.218;2024-02-15T01:13:15;5.65;;;3.17;;
23058;SDS011;30585;51.502;7.218;2024-02-15T01:15:43;8.13;;;3.53;;
23058;SDS011;30585;51.502;7.218;2024-02-15T01:18:10;5.20;;;2.93;;
23058;SDS011;30585;51.502;7.218;2024-02-15T01:20:38;5.28;;;3.45;;
23058;SDS011;30585;51.502;7.218;2024-02-15T01:23:06;7.30;;;3.40;;
23058;SDS011;30585;51.502;7.218;2024-02-15T01:25:35;7.95;;;3.92;;
23058;SDS011;30585;51.502;7.218;2024-02-15T01:28:03;5.17;;;3.90;;
23058;SDS011;30585;51.502;7.218;2024-02-15T01:30:32;6.07;;;3.43;;
23058;SDS011;30585;51.502;7.218;2024-02-15T01:33:00;11.05;;;3.55;;
23058;SDS011;30585;51.502;7.218;2024-02-15T01:35:28;8.50;;;3.00;;
23058;SDS011;30585;51.502;7.218;2024-02-15T01:37:55;6.57;;;3.10;;
23058;SDS011;30585;51.502;7.218;2024-02-15T01:40:23;5.45;;;3.33;;
23058;SDS011;30585;51.502;7.218;2024-02-15T01:42:51;7.60;;;4.35;;
23058;SDS011;30585;51.502;7.218;2024-02-15T01:45:19;7.80;;;3.05;;
23058;SDS011;30585;51.502;7.218;2024-02-15T01:47:49;8.27;;;3.00;;
23058;SDS011;30585;51.502;7.218;2024-02-15T01:50:17;4.65;;;2.92;;
23058;SDS011;30585;51.502;7.218;2024-02-15T01:52:45;7.97;;;3.38;;
23058;SDS011;30585;51.502;7.218;2024-02-15T01:55:15;10.52;;;3.33;;
23058;SDS011;30585;51.502;7.218;2024-02-15T01:57:45;5.53;;;3.28;;
23058;SDS011;30585;51.502;7.218;2024-02-15T02:00:13;9.07;;;3.60;;
23058;SDS011;30585;51.502;7.218;2024-02-15T02:02:43;7.35;;;3.30;;
23058;SDS011;30585;51.502;7.218;2024-02-15T02:05:13;8.20;;;3.55;;
23058;SDS011;30585;51.502;7.218;2024-02-15T02:07:41;4.20;;;2.97;;
23058;SDS011;30585;51.502;7.218;2024-02-15T02:10:09;5.28;;;2.83;;
23058;SDS011;30585;51.502;7.218;2024-02-15T02:12:38;4.03;;;2.72;;
23058;SDS011;30585;51.502;7.218;2024-02-15T02:15:08;7.50;;;2.55;;
23058;SDS011;30585;51.502;7.218;2024-02-15T02:17:37;7.03;;;2.97;;
23058;SDS011;30585;51.502;7.218;2024-02-15T02:20:07;5.85;;;2.90;;
23058;SDS011;30585;51.502;7.218;2024-02-15T02:22:39;11.07;;;3.70;;
23058;SDS011;30585;51.502;7.218;2024-02-15T02:25:09;5.97;;;3.15;;
23058;SDS011;30585;51.502;7.218;2024-02-15T02:27:37;8.25;;;3.78;;
23058;SDS011;30585;51.502;7.218;2024-02-15T02:30:05;3.90;;;2.25;;
23058;SDS011;30585;51.502;7.218;2024-02-15T02:32:41;3.92;;;3.08;;
23058;SDS011;30585;51.502;7.218;2024-02-15T02:35:09;6.80;;;3.13;;
23058;SDS011;30585;51.502;7.218;2024-02-15T02:37:38;5.10;;;3.55;;
23058;SDS011;30585;51.502;7.218;2024-02-15T02:40:07;5.63;;;3.20;;
23058;SDS011;30585;51.502;7.218;2024-02-15T02:42:46;8.20;;;2.97;;
23058;SDS011;30585;51.502;7.218;2024-02-15T02:45:15;9.15;;;3.05;;
23058;SDS011;30585;51.502;7.218;2024-02-15T02:47:43;3.60;;;2.95;;
23058;SDS011;30585;51.502;7.218;2024-02-15T02:50:11;10.40;;;3.10;;
23058;SDS011;30585;51.502;7.218;2024-02-15T02:52:38;3.10;;;2.67;;
23058;SDS011;30585;51.502;7.218;2024-02-15T02:55:06;10.80;;;3.67;;
23058;SDS011;30585;51.502;7.218;2024-02-15T02:57:36;5.03;;;3.20;;
23058;SDS011;30585;51.502;7.218;2024-02-15T03:00:05;6.07;;;2.70;;
23058;SDS011;30585;51.502;7.218;2024-02-15T03:02:37;6.22;;;2.50;;
23058;SDS011;30585;51.502;7.218;2024-02-15T03:05:05;5.57;;;2.60;;
23058;SDS011;30585;51.502;7.218;2024-02-15T03:07:35;4.28;;;2.83;;
23058;SDS011;30585;51.502;7.218;2024-02-15T03:10:04;4.50;;;2.45;;
23058;SDS011;30585;51.502;7.218;2024-02-15T03:12:36;4.28;;;2.60;;
23058;SDS011;30585;51.502;7.218;2024-02-15T03:15:04;4.65;;;2.20;;
23058;SDS011;30585;51.502;7.218;2024-02-15T03:17:34;2.67;;;2.30;;
23058;SDS011;30585;51.502;7.218;2024-02-15T03:20:02;4.43;;;2.58;;
23058;SDS011;30585;51.502;7.218;2024-02-15T03:22:37;5.05;;;2.28;;
23058;SDS011;30585;51.502;7.218;2024-02-15T03:25:06;5.30;;;2.38;;
23058;SDS011;30585;51.502;7.218;2024-02-15T03:27:36;7.07;;;2.08;;
23058;SDS011;30585;51.502;7.218;2024-02-15T03:30:04;3.08;;;2.08;;
23058;SDS011;30585;51.502;7.218;2024-02-15T03:32:33;8.15;;;1.90;;
23058;SDS011;30585;51.502;7.218;2024-02-15T03:35:01;9.70;;;1.98;;
23058;SDS011;30585;51.502;7.218;2024-02-15T03:37:29;8.60;;;2.13;;
23058;SDS011;30585;51.502;7.218;2024-02-15T03:39:56;1.88;;;1.65;;
23058;SDS011;30585;51.502;7.218;2024-02-15T03:42:24;2.92;;;1.63;;
23058;SDS011;30585;51.502;7.218;2024-02-15T03:44:53;3.65;;;1.90;;
23058;SDS011;30585;51.502;7.218;2024-02-15T03:47:21;9.57;;;2.30;;
23058;SDS011;30585;51.502;7.218;2024-02-15T03:49:50;3.50;;;1.38;;
23058;SDS011;30585;51.502;7.218;2024-02-15T03:52:18;2.67;;;2.00;;
23058;SDS011;30585;51.502;7.218;2024-02-15T03:54:46;6.07;;;1.90;;
23058;SDS011;30585;51.502;7.218;2024-02-15T03:57:14;9.43;;;2.47;;
23058;SDS011;30585;51.502;7.218;2024-02-15T03:59:43;5.90;;;2.50;;
23058;SDS011;30585;51.502;7.218;2024-02-15T04:02:15;4.30;;;1.83;;
23058;SDS011;30585;51.502;7.218;2024-02-15T04:04:43;3.53;;;1.63;;
23058;SDS011;30585;51.502;7.218;2024-02-15T04:07:13;1.85;;;1.58;;
23058;SDS011;30585;51.502;7.218;2024-02-15T04:09:42;3.70;;;1.75;;
23058;SDS011;30585;51.502;7.218;2024-02-15T04:12:10;3.20;;;1.92;;
23058;SDS011;30585;51.502;7.218;2024-02-15T04:14:38;3.45;;;1.58;;
23058;SDS011;30585;51.502;7.218;2024-02-15T04:17:05;3.72;;;2.10;;
23058;SDS011;30585;51.502;7.218;2024-02-15T04:19:34;1.80;;;1.25;;
23058;SDS011;30585;51.502;7.218;2024-02-15T04:22:03;3.95;;;1.95;;
23058;SDS011;30585;51.502;7.218;2024-02-15T04:24:33;2.85;;;1.30;;
23058;SDS011;30585;51.502;7.218;2024-02-15T04:27:06;4.50;;;2.05;;
23058;SDS011;30585;51.502;7.218;2024-02-15T04:29:35;2.70;;;1.40;;
23058;SDS011;30585;51.502;7.218;2024-02-15T04:32:03;1.45;;;1.30;;
23058;SDS011;30585;51.502;7.218;2024-02-15T04:34:31;4.00;;;1.58;;
23058;SDS011;30585;51.502;7.218;2024-02-15T04:37:02;2.30;;;1.55;;
23058;SDS011;30585;51.502;7.218;2024-02-15T04:39:32;3.17;;;1.67;;
23058;SDS011;30585;51.502;7.218;2024-02-15T04:42:02;2.75;;;1.77;;
23058;SDS011;30585;51.502;7.218;2024-02-15T04:44:32;3.22;;;1.40;;
23058;SDS011;30585;51.502;7.218;2024-02-15T04:47:02;1.92;;;1.27;;
23058;SDS011;30585;51.502;7.218;2024-02-15T04:49:30;2.78;;;1.60;;
23058;SDS011;30585;51.502;7.218;2024-02-15T04:51:58;1.92;;;1.20;;
23058;SDS011;30585;51.502;7.218;2024-02-15T04:54:30;2.05;;;1.30;;
23058;SDS011;30585;51.502;7.218;2024-02-15T04:56:59;1.63;;;1.00;;
23058;SDS011;30585;51.502;7.218;2024-02-15T04:59:27;4.35;;;1.05;;
23058;SDS011;30585;51.502;7.218;2024-02-15T05:01:55;1.27;;;1.17;;
23058;SDS011;30585;51.502;7.218;2024-02-15T05:04:24;4.78;;;1.40;;
23058;SDS011;30585;51.502;7.218;2024-02-15T05:06:52;3.83;;;1.52;;
23058;SDS011;30585;51.502;7.218;2024-02-15T05:09:20;3.20;;;1.17;;
23058;SDS011;30585;51.502;7.218;2024-02-15T05:11:50;5.18;;;1.40;;
23058;SDS011;30585;51.502;7.218;2024-02-15T05:14:19;1.92;;;0.90;;
23058;SDS011;30585;51.502;7.218;2024-02-15T05:16:47;1.73;;;1.20;;
23058;SDS011;30585;51.502;7.218;2024-02-15T05:19:15;1.58;;;1.00;;
23058;SDS011;30585;51.502;7.218;2024-02-15T05:21:45;2.72;;;1.15;;
23058;SDS011;30585;51.502;7.218;2024-02-15T05:24:13;1.35;;;0.93;;
23058;SDS011;30585;51.502;7.218;2024-02-15T05:26:43;1.92;;;0.80;;
23058;SDS011;30585;51.502;7.218;2024-02-15T05:29:14;0.85;;;0.80;;
23058;SDS011;30585;51.502;7.218;2024-02-15T05:31:43;3.97;;;1.23;;
23058;SDS011;30585;51.502;7.218;2024-02-15T05:34:11;0.80;;;0.77;;
23058;SDS011;30585;51.502;7.218;2024-02-15T05:36:39;1.63;;;1.15;;
23058;SDS011;30585;51.502;7.218;2024-02-15T05:39:08;0.88;;;0.68;;
23058;SDS011;30585;51.502;7.218;2024-02-15T05:41:38;2.33;;;0.82;;
23058;SDS011;30585;51.502;7.218;2024-02-15T05:44:06;4.53;;;0.88;;
23058;SDS011;30585;51.502;7.218;2024-02-15T05:46:37;1.92;;;1.15;;
23058;SDS011;30585;51.502;7.218;2024-02-15T05:49:06;4.30;;;0.75;;
23058;SDS011;30585;51.502;7.218;2024-02-15T05:51:39;0.75;;;0.55;;
23058;SDS011;30585;51.502;7.218;2024-02-15T05:54:10;1.70;;;0.73;;
23058;SDS011;30585;51.502;7.218;2024-02-15T05:56:37;7.32;;;0.82;;
23058;SDS011;30585;51.502;7.218;2024-02-15T05:59:05;2.08;;;0.70;;
23058;SDS011;30585;51.502;7.218;2024-02-15T06:01:38;1.08;;;0.57;;
23058;SDS011;30585;51.502;7.218;2024-02-15T06:04:07;2.80;;;1.10;;
23058;SDS011;30585;51.502;7.218;2024-02-15T06:06:35;1.13;;;0.55;;
23058;SDS011;30585;51.502;7.218;2024-02-15T06:09:03;1.77;;;0.90;;
23058;SDS011;30585;51.502;7.218;2024-02-15T06:11:31;4.10;;;0.90;;
23058;SDS011;30585;51.502;7.218;2024-02-15T06:13:59;2.90;;;0.98;;
23058;SDS011;30585;51.502;7.218;2024-02-15T06:16:26;1.23;;;0.68;;
23058;SDS011;30585;51.502;7.218;2024-02-15T06:18:55;1.23;;;0.80;;
23058;SDS011;30585;51.502;7.218;2024-02-15T06:21:24;0.80;;;0.60;;
23058;SDS011;30585;51.502;7.218;2024-02-15T06:23:52;0.95;;;0.73;;
23058;SDS011;30585;51.502;7.218;2024-02-15T06:26:20;1.38;;;0.60;;
23058;SDS011;30585;51.502;7.218;2024-02-15T06:28:47;2.40;;;0.80;;
23058;SDS011;30585;51.502;7.218;2024-02-15T06:31:33;1.05;;;0.75;;
23058;SDS011;30585;51.502;7.218;2024-02-15T06:34:20;1.60;;;0.60;;
23058;SDS011;30585;51.502;7.218;2024-02-15T06:37:05;1.83;;;0.57;;
23058;SDS011;30585;51.502;7.218;2024-02-15T06:39:51;1.08;;;0.80;;
23058;SDS011;30585;51.502;7.218;2024-02-15T06:42:19;0.90;;;0.63;;
23058;SDS011;30585;51.502;7.218;2024-02-15T06:44:47;1.67;;;1.02;;
23058;SDS011;30585;51.502;7.218;2024-02-15T06:47:16;2.60;;;0.90;;
23058;SDS011;30585;51.502;7.218;2024-02-15T06:49:46;4.38;;;0.85;;
23058;SDS011;30585;51.502;7.218;2024-02-15T06:52:16;3.35;;;1.20;;
23058;SDS011;30585;51.502;7.218;2024-02-15T06:54:44;1.05;;;0.90;;
23058;SDS011;30585;51.502;7.218;2024-02-15T06:57:12;1.80;;;0.80;;
23058;SDS011;30585;51.502;7.218;2024-02-15T06:59:46;1.77;;;1.13;;
23058;SDS011;30585;51.502;7.218;2024-02-15T07:02:14;1.35;;;0.90;;
23058;SDS011;30585;51.502;7.218;2024-02-15T07:04:43;1.98;;;0.90;;
23058;SDS011;30585;51.502;7.218;2024-02-15T07:07:13;4.18;;;0.98;;
23058;SDS011;30585;51.502;7.218;2024-02-15T07:09:43;1.02;;;0.73;;
23058;SDS011;30585;51.502;7.218;2024-02-15T07:12:11;1.08;;;0.98;;
23058;SDS011;30585;51.502;7.218;2024-02-15T07:14:38;1.40;;;0.85;;
23058;SDS011;30585;51.502;7.218;2024-02-15T07:17:07;1.27;;;0.70;;
23058;SDS011;30585;51.502;7.218;2024-02-15T07:19:35;2.97;;;1.35;;
23058;SDS011;30585;51.502;7.218;2024-02-15T07:22:04;1.85;;;1.30;;
23058;SDS011;30585;51.502;7.218;2024-02-15T07:24:34;7.40;;;1.20;;
23058;SDS011;30585;51.502;7.218;2024-02-15T07:27:04;2.92;;;1.20;;
23058;SDS011;30585;51.502;7.218;2024-02-15T07:29:33;2.90;;;0.82;;
23058;SDS011;30585;51.502;7.218;2024-02-15T07:32:04;0.90;;;0.77;;
23058;SDS011;30585;51.502;7.218;2024-02-15T07:34:32;1.50;;;0.80;;
23058;SDS011;30585;51.502;7.218;2024-02-15T07:37:02;1.48;;;1.00;;
23058;SDS011;30585;51.502;7.218;2024-02-15T07:39:29;1.58;;;0.77;;
23058;SDS011;30585;51.502;7.218;2024-02-15T07:41:58;2.13;;;1.35;;
23058;SDS011;30585;51.502;7.218;2024-02-15T07:44:26;2.55;;;1.27;;
23058;SDS011;30585;51.502;7.218;2024-02-15T07:46:56;4.22;;;1.73;;
23058;SDS011;30585;51.502;7.218;2024-02-15T07:49:24;5.18;;;1.63;;
23058;SDS011;30585;51.502;7.218;2024-02-15T07:51:52;4.43;;;1.13;;
23058;SDS011;30585;51.502;7.218;2024-02-15T07:54:20;3.67;;;1.35;;
23058;SDS011;30585;51.502;7.218;2024-02-15T07:56:48;3.42;;;1.10;;
23058;SDS011;30585;51.502;7.218;2024-02-15T07:59:17;3.72;;;1.77;;
23058;SDS011;30585;51.502;7.218;2024-02-15T08:01:45;5.32;;;0.82;;
23058;SDS011;30585;51.502;7.218;2024-02-15T08:04:14;1.08;;;0.77;;
23058;SDS011;30585;51.502;7.218;2024-02-15T08:06:43;4.10;;;1.30;;
23058;SDS011;30585;51.502;7.218;2024-02-15T08:09:11;1.92;;;0.93;;
23058;SDS011;30585;51.502;7.218;2024-02-15T08:11:40;2.78;;;1.40;;
23058;SDS011;30585;51.502;7.218;2024-02-15T08:14:08;8.30;;;1.92;;
23058;SDS011;30585;51.502;7.218;2024-02-15T08:16:41;1.67;;;1.20;;
23058;SDS011;30585;51.502;7.218;2024-02-15T08:19:08;2.28;;;1.40;;
23058;SDS011;30585;51.502;7.218;2024-02-15T08:21:37;1.85;;;1.30;;
23058;SDS011;30585;51.502;7.218;2024-02-15T08:24:08;5.28;;;1.35;;
23058;SDS011;30585;51.502;7.218;2024-02-15T08:26:36;4.57;;;1.42;;
23058;SDS011;30585;51.502;7.218;2024-02-15T08:29:05;2.58;;;1.65;;
23058;SDS011;30585;51.502;7.218;2024-02-15T08:31:33;3.10;;;1.33;;
23058;SDS011;30585;51.502;7.218;2024-02-15T08:34:02;2.92;;;1.15;;
23058;SDS011;30585;51.502;7.218;2024-02-15T08:36:32;8.95;;;1.17;;
23058;SDS011;30585;51.502;7.218;2024-02-15T08:39:00;3.08;;;1.52;;
23058;SDS011;30585;51.502;7.218;2024-02-15T08:41:30;1.50;;;0.80;;
23058;SDS011;30585;51.502;7.218;2024-02-15T08:43:58;2.00;;;0.98;;
23058;SDS011;30585;51.502;7.218;2024-02-15T08:46:27;3.90;;;1.02;;
23058;SDS011;30585;51.502;7.218;2024-02-15T08:48:55;4.95;;;1.23;;
23058;SDS011;30585;51.502;7.218;2024-02-15T08:51:24;3.00;;;1.10;;
23058;SDS011;30585;51.502;7.218;2024-02-15T08:53:52;1.98;;;1.30;;
23058;SDS011;30585;51.502;7.218;2024-02-15T08:56:20;2.17;;;1.23;;
23058;SDS011;30585;51.502;7.218;2024-02-15T08:58:49;3.97;;;0.93;;
23058;SDS011;30585;51.502;7.218;2024-02-15T09:01:17;2.90;;;0.98;;
23058;SDS011;30585;51.502;7.218;2024-02-15T09:03:45;1.63;;;0.80;;
23058;SDS011;30585;51.502;7.218;2024-02-15T09:06:13;2.22;;;0.90;;
23058;SDS011;30585;51.502;7.218;2024-02-15T09:08:43;6.28;;;1.08;;
23058;SDS011;30585;51.502;7.218;2024-02-15T09:11:10;3.40;;;1.02;;
23058;SDS011;30585;51.502;7.218;2024-02-15T09:13:39;3.90;;;1.00;;
23058;SDS011;30585;51.502;7.218;2024-02-15T09:16:07;3.30;;;1.30;;
23058;SDS011;30585;51.502;7.218;2024-02-15T09:18:40;2.17;;;0.85;;
23058;SDS011;30585;51.502;7.218;2024-02-15T09:21:12;6.07;;;0.95;;
23058;SDS011;30585;51.502;7.218;2024-02-15T09:23:40;1.33;;;0.70;;
23058;SDS011;30585;51.502;7.218;2024-02-15T09:26:10;0.98;;;0.70;;
23058;SDS011;30585;51.502;7.218;2024-02-15T09:28:39;4.40;;;0.80;;
23058;SDS011;30585;51.502;7.218;2024-02-15T09:31:07;2.85;;;1.08;;
23058;SDS011;30585;51.502;7.218;2024-02-15T09:33:38;0.93;;;0.70;;
23058;SDS011;30585;51.502;7.218;2024-02-15T09:36:06;1.95;;;0.80;;
23058;SDS011;30585;51.502;7.218;2024-02-15T09:38:34;2.30;;;1.00;;
23058;SDS011;30585;51.502;7.218;2024-02-15T09:41:02;4.38;;;1.10;;
23058;SDS011;30585;51.502;7.218;2024-02-15T09:43:35;0.95;;;0.77;;
23058;SDS011;30585;51.502;7.218;2024-02-15T09:46:03;3.20;;;1.30;;
23058;SDS011;30585;51.502;7.218;2024-02-15T09:48:32;2.22;;;1.10;;
23058;SDS011;30585;51.502;7.218;2024-02-15T09:51:02;0.73;;;0.55;;
23058;SDS011;30585;51.502;7.218;2024-02-15T09:53:31;1.38;;;0.60;;
23058;SDS011;30585;51.502;7.218;2024-02-15T09:55:59;1.73;;;0.88;;
23058;SDS011;30585;51.502;7.218;2024-02-15T09:58:30;1.65;;;1.10;;
23058;SDS011;30585;51.502;7.218;2024-02-15T10:01:02;1.27;;;0.85;;
23058;SDS011;30585;51.502;7.218;2024-02-15T10:03:32;2.63;;;1.15;;
23058;SDS011;30585;51.502;7.218;2024-02-15T10:06:01;1.70;;;0.80;;
23058;SDS011;30585;51.502;7.218;2024-02-15T10:08:29;2.10;;;0.90;;
23058;SDS011;30585;51.502;7.218;2024-02-15T10:11:05;2.97;;;0.70;;
23058;SDS011;30585;51.502;7.218;2024-02-15T10:13:34;5.85;;;1.38;;
23058;SDS011;30585;51.502;7.218;2024-02-15T10:16:14;1.10;;;0.65;;
23058;SDS011;30585;51.502;7.218;2024-02-15T10:18:43;1.80;;;1.20;;
23058;SDS011;30585;51.502;7.218;2024-02-15T10:21:16;4.20;;;1.00;;
23058;SDS011;30585;51.502;7.218;2024-02-15T10:24:01;2.38;;;0.70;;
23058;SDS011;30585;51.502;7.218;2024-02-15T10:26:31;1.20;;;0.60;;
23058;SDS011;30585;51.502;7.218;2024-02-15T10:29:04;0.82;;;0.75;;
23058;SDS011;30585;51.502;7.218;2024-02-15T10:31:38;10.10;;;1.20;;
23058;SDS011;30585;51.502;7.218;2024-02-15T10:34:08;2.83;;;0.73;;
23058;SDS011;30585;51.502;7.218;2024-02-15T10:36:36;2.38;;;1.00;;
23058;SDS011;30585;51.502;7.218;2024-02-15T10:39:10;1.95;;;0.52;;
23058;SDS011;30585;51.502;7.218;2024-02-15T10:41:44;4.20;;;1.25;;
23058;SDS011;30585;51.502;7.218;2024-02-15T10:44:14;3.92;;;0.98;;
23058;SDS011;30585;51.502;7.218;2024-02-15T10:46:46;0.70;;;0.50;;
23058;SDS011;30585;51.502;7.218;2024-02-15T10:49:17;2.30;;;0.65;;
23058;SDS011;30585;51.502;7.218;2024-02-15T10:51:48;1.65;;;0.77;;
23058;SDS011;30585;51.502;7.218;2024-02-15T10:54:22;1.75;;;0.88;;
23058;SDS011;30585;51.502;7.218;2024-02-15T10:57:02;3.53;;;0.85;;
23058;SDS011;30585;51.502;7.218;2024-02-15T10:59:32;1.25;;;0.60;;
23058;SDS011;30585;51.502;7.218;2024-02-15T11:02:10;1.65;;;0.70;;
23058;SDS011;30585;51.502;7.218;2024-02-15T11:04:52;1.20;;;0.60;;
23058;SDS011;30585;51.502;7.218;2024-02-15T11:07:23;1.58;;;0.70;;
23058;SDS011;30585;51.502;7.218;2024-02-15T11:09:57;1.00;;;0.77;;
23058;SDS011;30585;51.502;7.218;2024-02-15T11:12:27;1.85;;;0.80;;
23058;SDS011;30585;51.502;7.218;2024-02-15T11:14:57;5.22;;;0.80;;
23058;SDS011;30585;51.502;7.218;2024-02-15T11:23:23;3.80;;;0.90;;
23058;SDS011;30585;51.502;7.218;2024-02-15T11:26:02;1.73;;;0.63;;
23058;SDS011;30585;51.502;7.218;2024-02-15T11:28:35;1.65;;;0.55;;
23058;SDS011;30585;51.502;7.218;2024-02-15T11:31:06;1.10;;;0.45;;
23058;SDS011;30585;51.502;7.218;2024-02-15T11:33:37;0.80;;;0.45;;
23058;SDS011;30585;51.502;7.218;2024-02-15T11:36:05;1.40;;;0.70;;
23058;SDS011;30585;51.502;7.218;2024-02-15T11:38:34;1.75;;;0.80;;
23058;SDS011;30585;51.502;7.218;2024-02-15T11:41:03;1.65;;;0.65;;
23058;SDS011;30585;51.502;7.218;2024-02-15T11:43:45;2.13;;;0.82;;
23058;SDS011;30585;51.502;7.218;2024-02-15T11:46:22;5.00;;;0.75;;
23058;SDS011;30585;51.502;7.218;2024-02-15T11:48:53;5.00;;;0.70;;
23058;SDS011;30585;51.502;7.218;2024-02-15T11:51:26;1.10;;;0.80;;
23058;SDS011;30585;51.502;7.218;2024-02-15T11:53:58;2.50;;;0.75;;
23058;SDS011;30585;51.502;7.218;2024-02-15T11:56:27;2.97;;;1.00;;
23058;SDS011;30585;51.502;7.218;2024-02-15T11:59:01;1.42;;;0.80;;
23058;SDS011;30585;51.502;7.218;2024-02-15T12:01:33;1.00;;;0.57;;
23058;SDS011;30585;51.502;7.218;2024-02-15T12:04:19;1.75;;;0.52;;
23058;SDS011;30585;51.502;7.218;2024-02-15T12:07:05;1.20;;;0.52;;
23058;SDS011;30585;51.502;7.218;2024-02-15T12:09:50;2.75;;;0.65;;
23058;SDS011;30585;51.502;7.218;2024-02-15T12:12:50;1.45;;;0.70;;
23058;SDS011;30585;51.502;7.218;2024-02-15T12:15:35;3.72;;;0.90;;
23058;SDS011;30585;51.502;7.218;2024-02-15T12:18:21;0.52;;;0.50;;
23058;SDS011;30585;51.502;7.218;2024-02-15T12:21:11;0.35;;;0.35;;
23058;SDS011;30585;51.502;7.218;2024-02-15T12:23:42;1.08;;;0.70;;
23058;SDS011;30585;51.502;7.218;2024-02-15T12:26:12;5.60;;;0.70;;
23058;SDS011;30585;51.502;7.218;2024-02-15T12:28:41;1.65;;;0.60;;
23058;SDS011;30585;51.502;7.218;2024-02-15T12:31:13;1.13;;;0.55;;
23058;SDS011;30585;51.502;7.218;2024-02-15T12:33:41;3.22;;;0.80;;
23058;SDS011;30585;51.502;7.218;2024-02-15T12:36:10;0.95;;;0.80;;
23058;SDS011;30585;51.502;7.218;2024-02-15T12:38:38;2.92;;;0.70;;
23058;SDS011;30585;51.502;7.218;2024-02-15T12:41:17;1.92;;;0.90;;
23058;SDS011;30585;51.502;7.218;2024-02-15T12:43:46;0.80;;;0.60;;
23058;SDS011;30585;51.502;7.218;2024-02-15T12:46:17;0.70;;;0.70;;
23058;SDS011;30585;51.502;7.218;2024-02-15T12:48:45;1.20;;;0.63;;
23058;SDS011;30585;51.502;7.218;2024-02-15T12:51:15;2.70;;;0.65;;
23058;SDS011;30585;51.502;7.218;2024-02-15T12:53:44;2.33;;;0.70;;
23058;SDS011;30585;51.502;7.218;2024-02-15T12:56:19;1.05;;;0.73;;
23058;SDS011;30585;51.502;7.218;2024-02-15T12:58:48;1.23;;;0.63;;
23058;SDS011;30585;51.502;7.218;2024-02-15T13:01:16;1.33;;;0.45;;
23058;SDS011;30585;51.502;7.218;2024-02-15T13:03:43;3.80;;;0.95;;
23058;SDS011;30585;51.502;7.218;2024-02-15T13:06:12;3.40;;;0.60;;
23058;SDS011;30585;51.502;7.218;2024-02-15T13:08:41;1.23;;;0.57;;
23058;SDS011;30585;51.502;7.218;2024-02-15T13:11:11;0.40;;;0.40;;
23058;SDS011;30585;51.502;7.218;2024-02-15T13:13:39;0.90;;;0.57;;
23058;SDS011;30585;51.502;7.218;2024-02-15T13:16:08;2.28;;;0.65;;
23058;SDS011;30585;51.502;7.218;2024-02-15T13:18:36;2.25;;;0.70;;
23058;SDS011;30585;51.502;7.218;2024-02-15T13:21:04;1.02;;;0.40;;
23058;SDS011;30585;51.502;7.218;2024-02-15T13:23:32;0.82;;;0.40;;
23058;SDS011;30585;51.502;7.218;2024-02-15T13:26:03;1.75;;;0.75;;
23058;SDS011;30585;51.502;7.218;2024-02-15T13:28:31;0.70;;;0.47;;
23058;SDS011;30585;51.502;7.218;2024-02-15T13:30:59;3.72;;;0.93;;
23058;SDS011;30585;51.502;7.218;2024-02-15T13:33:27;0.75;;;0.43;;
23058;SDS011;30585;51.502;7.218;2024-02-15T13:35:58;1.65;;;0.73;;
23058;SDS011;30585;51.502;7.218;2024-02-15T13:38:26;0.95;;;0.50;;
23058;SDS011;30585;51.502;7.218;2024-02-15T13:40:54;1.02;;;0.60;;
23058;SDS011;30585;51.502;7.218;2024-02-15T13:43:24;1.00;;;0.50;;
23058;SDS011;30585;51.502;7.218;2024-02-15T13:45:53;0.65;;;0.55;;
23058;SDS011;30585;51.502;7.218;2024-02-15T13:48:21;2.05;;;0.52;;
23058;SDS011;30585;51.502;7.218;2024-02-15T13:50:51;0.55;;;0.50;;
23058;SDS011;30585;51.502;7.218;2024-02-15T13:53:19;1.63;;;0.70;;
23058;SDS011;30585;51.502;7.218;2024-02-15T13:55:50;1.35;;;0.68;;
23058;SDS011;30585;51.502;7.218;2024-02-15T13:58:19;4.70;;;0.60;;
23058;SDS011;30585;51.502;7.218;2024-02-15T14:00:48;1.25;;;0.68;;
23058;SDS011;30585;51.502;7.218;2024-02-15T14:03:16;2.03;;;0.60;;
23058;SDS011;30585;51.502;7.218;2024-02-15T14:05:45;0.77;;;0.65;;
23058;SDS011;30585;51.502;7.218;2024-02-15T14:08:14;1.52;;;0.60;;
23058;SDS011;30585;51.502;7.218;2024-02-15T14:10:42;1.20;;;0.63;;
23058;SDS011;30585;51.502;7.218;2024-02-15T14:13:10;1.38;;;0.60;;
23058;SDS011;30585;51.502;7.218;2024-02-15T14:15:39;0.40;;;0.40;;
23058;SDS011;30585;51.502;7.218;2024-02-15T14:18:09;0.60;;;0.50;;
23058;SDS011;30585;51.502;7.218;2024-02-15T14:20:41;1.67;;;0.55;;
23058;SDS011;30585;51.502;7.218;2024-02-15T14:23:09;1.20;;;0.80;;
23058;SDS011;30585;51.502;7.218;2024-02-15T14:25:41;2.80;;;0.75;;
23058;SDS011;30585;51.502;7.218;2024-02-15T14:28:09;0.80;;;0.55;;
23058;SDS011;30585;51.502;7.218;2024-02-15T14:30:37;1.23;;;0.60;;
23058;SDS011;30585;51.502;7.218;2024-02-15T14:33:25;1.23;;;0.70;;
23058;SDS011;30585;51.502;7.218;2024-02-15T14:35:56;1.95;;;0.75;;
23058;SDS011;30585;51.502;7.218;2024-02-15T14:38:26;1.25;;;0.50;;
23058;SDS011;30585;51.502;7.218;2024-02-15T14:40:54;0.90;;;0.38;;
23058;SDS011;30585;51.502;7.218;2024-02-15T14:43:23;0.98;;;0.45;;
23058;SDS011;30585;51.502;7.218;2024-02-15T14:45:53;2.35;;;0.70;;
23058;SDS011;30585;51.502;7.218;2024-02-15T14:48:25;0.90;;;0.52;;
23058;SDS011;30585;51.502;7.218;2024-02-15T14:50:53;0.82;;;0.60;;
23058;SDS011;30585;51.502;7.218;2024-02-15T14:53:23;0.90;;;0.60;;
23058;SDS011;30585;51.502;7.218;2024-02-15T14:55:51;0.77;;;0.60;;
23058;SDS011;30585;51.502;7.218;2024-02-15T14:58:19;1.05;;;0.60;;
23058;SDS011;30585;51.502;7.218;2024-02-15T15:00:49;2.15;;;0.70;;
23058;SDS011;30585;51.502;7.218;2024-02-15T15:03:16;5.93;;;0.75;;
23058;SDS011;30585;51.502;7.218;2024-02-15T15:05:48;0.75;;;0.60;;
23058;SDS011;30585;51.502;7.218;2024-02-15T15:08:33;0.73;;;0.40;;
23058;SDS011;30585;51.502;7.218;2024-02-15T15:11:19;4.20;;;0.77;;